ARA225 HKJK-HKMO
Flight info
| Callsign | ARA225 |
|---|---|
| Flight time | 0h 40m |
| Altitude | 33000 |
| Route | ATUDU1D UVOVA UQ135 NEREV NEREV3A |
| Aircraft | B737/M-SDE2E3FGHIRWXY/LB1 |
Departure
| Time | 2026-04-21 18:33 |
|---|---|
| Airport | Jomo Kenyatta International Airport (HKJK) |
Arrival
| Time | 2026-04-21 19:13 |
|---|---|
| Airport | Moi International Airport (HKMO) |
| Time | Latitude | Longitude | Altitude | Speed | Heading |
|---|---|---|---|---|---|
| 2026-04-21 17:09 | -1.33056 | 36.92300 | 5338 ft | 0 kts | 87° |
| 2026-04-21 18:26 | -1.33056 | 36.92298 | 5360 ft | 1 kts | 86° |
| 2026-04-21 18:26 | -1.33057 | 36.92280 | 5341 ft | 3 kts | 84° |
| 2026-04-21 18:27 | -1.33060 | 36.92260 | 5340 ft | 3 kts | 80° |
| 2026-04-21 18:27 | -1.33064 | 36.92240 | 5339 ft | 3 kts | 71° |
| 2026-04-21 18:27 | -1.33073 | 36.92223 | 5340 ft | 3 kts | 40° |
| 2026-04-21 18:27 | -1.33083 | 36.92217 | 5341 ft | 1 kts | 354° |
| 2026-04-21 18:28 | -1.33085 | 36.92217 | 5341 ft | 0 kts | 354° |
| 2026-04-21 18:29 | -1.33083 | 36.92217 | 5342 ft | 2 kts | 354° |
| 2026-04-21 18:29 | -1.33038 | 36.92215 | 5338 ft | 11 kts | 1° |
| 2026-04-21 18:29 | -1.32942 | 36.92236 | 5339 ft | 17 kts | 20° |
| 2026-04-21 18:30 | -1.32824 | 36.92228 | 5341 ft | 20 kts | 324° |
| 2026-04-21 18:30 | -1.32819 | 36.92110 | 5339 ft | 22 kts | 233° |
| 2026-04-21 18:30 | -1.32827 | 36.91948 | 5340 ft | 24 kts | 279° |
| 2026-04-21 18:30 | -1.32852 | 36.91795 | 5339 ft | 23 kts | 239° |
| 2026-04-21 18:31 | -1.32850 | 36.91716 | 5340 ft | 9 kts | 323° |
| 2026-04-21 18:31 | -1.32839 | 36.91708 | 5342 ft | 0 kts | 322° |
| 2026-04-21 18:31 | -1.32821 | 36.91695 | 5338 ft | 11 kts | 323° |
| 2026-04-21 18:32 | -1.32741 | 36.91663 | 5338 ft | 9 kts | 44° |
| 2026-04-21 18:32 | -1.32733 | 36.91676 | 5340 ft | 0 kts | 56° |
| 2026-04-21 18:32 | -1.32694 | 36.91732 | 5340 ft | 35 kts | 55° |
| 2026-04-21 18:32 | -1.32407 | 36.92118 | 5336 ft | 103 kts | 53° |
| 2026-04-21 18:33 | -1.31861 | 36.92858 | 5338 ft | 159 kts | 54° |
| 2026-04-21 18:33 | -1.31167 | 36.93806 | 5897 ft | 166 kts | 53° |
| 2026-04-21 18:33 | -1.30515 | 36.94698 | 6865 ft | 152 kts | 57° |
| 2026-04-21 18:33 | -1.29916 | 36.95611 | 7374 ft | 165 kts | 65° |
| 2026-04-21 18:34 | -1.29594 | 36.96796 | 7615 ft | 191 kts | 91° |
| 2026-04-21 18:34 | -1.30087 | 36.98079 | 7788 ft | 216 kts | 134° |
| 2026-04-21 18:34 | -1.31503 | 36.98739 | 7969 ft | 243 kts | 173° |
| 2026-04-21 18:34 | -1.33204 | 36.98329 | 8225 ft | 265 kts | 207° |
| 2026-04-21 18:35 | -1.34234 | 36.97653 | 8510 ft | 270 kts | 210° |
| 2026-04-21 18:35 | -1.36633 | 36.97167 | 9182 ft | 266 kts | 169° |
| 2026-04-21 18:35 | -1.38342 | 36.97773 | 9740 ft | 265 kts | 145° |
| 2026-04-21 18:35 | -1.39772 | 36.99004 | 10131 ft | 278 kts | 132° |
| 2026-04-21 18:36 | -1.41089 | 37.00460 | 10380 ft | 299 kts | 129° |
| 2026-04-21 18:36 | -1.42503 | 37.02113 | 10554 ft | 325 kts | 129° |
| 2026-04-21 18:36 | -1.44019 | 37.03902 | 10712 ft | 349 kts | 129° |
| 2026-04-21 18:36 | -1.45628 | 37.05791 | 11069 ft | 363 kts | 129° |
| 2026-04-21 18:37 | -1.47284 | 37.07721 | 11703 ft | 367 kts | 129° |
| 2026-04-21 18:37 | -1.48955 | 37.09656 | 12430 ft | 369 kts | 129° |
| 2026-04-21 18:37 | -1.50645 | 37.11605 | 13141 ft | 372 kts | 130° |
| 2026-04-21 18:37 | -1.52352 | 37.13567 | 13820 ft | 376 kts | 130° |
| 2026-04-21 18:38 | -1.54076 | 37.15545 | 14421 ft | 379 kts | 130° |
| 2026-04-21 18:38 | -1.55819 | 37.17543 | 15004 ft | 383 kts | 130° |
| 2026-04-21 18:38 | -1.57578 | 37.19559 | 15603 ft | 386 kts | 130° |
| 2026-04-21 18:38 | -1.59349 | 37.21588 | 16189 ft | 389 kts | 130° |
| 2026-04-21 18:39 | -1.61116 | 37.23612 | 16743 ft | 393 kts | 130° |
| 2026-04-21 18:39 | -1.62942 | 37.25703 | 17298 ft | 396 kts | 130° |
| 2026-04-21 18:39 | -1.64737 | 37.27760 | 17829 ft | 399 kts | 130° |
| 2026-04-21 18:39 | -1.66572 | 37.29861 | 18356 ft | 402 kts | 130° |
| 2026-04-21 18:40 | -1.68418 | 37.31976 | 18806 ft | 405 kts | 130° |
| 2026-04-21 18:40 | -1.70275 | 37.34103 | 19250 ft | 408 kts | 130° |
| 2026-04-21 18:40 | -1.71537 | 37.35548 | 19540 ft | 410 kts | 130° |
| 2026-04-21 18:40 | -1.74032 | 37.38407 | 20072 ft | 414 kts | 130° |
| 2026-04-21 18:41 | -1.75932 | 37.40584 | 20467 ft | 417 kts | 130° |
| 2026-04-21 18:41 | -1.77846 | 37.42777 | 20864 ft | 420 kts | 130° |
| 2026-04-21 18:41 | -1.79771 | 37.44983 | 21244 ft | 422 kts | 130° |
| 2026-04-21 18:41 | -1.81709 | 37.47204 | 21625 ft | 425 kts | 130° |
| 2026-04-21 18:42 | -1.83657 | 37.49436 | 21984 ft | 427 kts | 130° |
| 2026-04-21 18:42 | -1.85619 | 37.51684 | 22333 ft | 430 kts | 130° |
| 2026-04-21 18:42 | -1.87595 | 37.53948 | 22671 ft | 432 kts | 130° |
| 2026-04-21 18:42 | -1.89584 | 37.56227 | 23003 ft | 435 kts | 130° |
| 2026-04-21 18:43 | -1.91576 | 37.58511 | 23321 ft | 437 kts | 130° |
| 2026-04-21 18:43 | -1.93581 | 37.60808 | 23632 ft | 439 kts | 130° |
| 2026-04-21 18:43 | -1.95594 | 37.63116 | 23881 ft | 441 kts | 130° |
| 2026-04-21 18:43 | -1.97617 | 37.65434 | 24131 ft | 443 kts | 130° |
| 2026-04-21 18:44 | -1.99646 | 37.67760 | 24375 ft | 445 kts | 130° |
| 2026-04-21 18:44 | -2.01658 | 37.70066 | 24597 ft | 447 kts | 130° |
| 2026-04-21 18:44 | -2.03707 | 37.72415 | 24832 ft | 449 kts | 130° |
| 2026-04-21 18:44 | -2.05761 | 37.74770 | 25082 ft | 450 kts | 130° |
| 2026-04-21 18:45 | -2.07824 | 37.77135 | 25322 ft | 451 kts | 130° |
| 2026-04-21 18:45 | -2.09891 | 37.79505 | 25527 ft | 454 kts | 130° |
| 2026-04-21 18:45 | -2.11969 | 37.81887 | 25736 ft | 455 kts | 130° |
| 2026-04-21 18:45 | -2.14057 | 37.84281 | 25971 ft | 456 kts | 130° |
| 2026-04-21 18:46 | -2.16146 | 37.86676 | 26183 ft | 458 kts | 130° |
| 2026-04-21 18:46 | -2.18247 | 37.89085 | 26400 ft | 460 kts | 130° |
| 2026-04-21 18:46 | -2.20355 | 37.91503 | 26599 ft | 461 kts | 130° |
| 2026-04-21 18:46 | -2.22463 | 37.93920 | 26802 ft | 463 kts | 130° |
| 2026-04-21 18:47 | -2.24586 | 37.96355 | 26999 ft | 464 kts | 130° |
| 2026-04-21 18:47 | -2.26712 | 37.98794 | 27192 ft | 466 kts | 130° |
| 2026-04-21 18:47 | -2.28844 | 38.01239 | 27389 ft | 467 kts | 130° |
| 2026-04-21 18:47 | -2.30982 | 38.03691 | 27553 ft | 469 kts | 130° |
| 2026-04-21 18:48 | -2.33129 | 38.06154 | 27741 ft | 470 kts | 129° |
| 2026-04-21 18:48 | -2.35277 | 38.08618 | 27917 ft | 471 kts | 129° |
| 2026-04-21 18:48 | -2.37435 | 38.11094 | 28072 ft | 473 kts | 129° |
| 2026-04-21 18:48 | -2.39603 | 38.13581 | 28227 ft | 474 kts | 129° |
| 2026-04-21 18:49 | -2.41781 | 38.16080 | 28382 ft | 476 kts | 129° |
| 2026-04-21 18:49 | -2.43956 | 38.18575 | 28540 ft | 477 kts | 129° |
| 2026-04-21 18:49 | -2.45404 | 38.20237 | 28655 ft | 477 kts | 129° |
| 2026-04-21 18:49 | -2.48300 | 38.23559 | 28864 ft | 479 kts | 129° |
| 2026-04-21 18:50 | -2.50494 | 38.26077 | 28988 ft | 481 kts | 129° |
| 2026-04-21 18:50 | -2.52692 | 38.28599 | 29281 ft | 478 kts | 129° |
| 2026-04-21 18:50 | -2.54858 | 38.31084 | 29874 ft | 470 kts | 129° |
| 2026-04-21 18:50 | -2.56990 | 38.33529 | 30337 ft | 465 kts | 129° |
| 2026-04-21 18:51 | -2.59115 | 38.35968 | 30561 ft | 466 kts | 129° |
| 2026-04-21 18:51 | -2.63415 | 38.40907 | 30781 ft | 473 kts | 129° |
| 2026-04-21 18:51 | -2.65569 | 38.43379 | 30950 ft | 470 kts | 129° |
| 2026-04-21 18:52 | -2.67725 | 38.45854 | 30939 ft | 473 kts | 129° |
| 2026-04-21 18:52 | -2.72057 | 38.50828 | 30956 ft | 475 kts | 129° |
| 2026-04-21 18:53 | -2.76377 | 38.55789 | 30943 ft | 476 kts | 129° |
| 2026-04-21 18:53 | -2.80737 | 38.60797 | 30946 ft | 477 kts | 129° |
| 2026-04-21 18:54 | -2.85097 | 38.65805 | 30946 ft | 477 kts | 129° |
| 2026-04-21 18:54 | -2.89451 | 38.70807 | 30945 ft | 477 kts | 129° |
| 2026-04-21 18:55 | -2.93069 | 38.74964 | 30943 ft | 476 kts | 129° |
| 2026-04-21 18:55 | -2.98154 | 38.80806 | 30946 ft | 476 kts | 129° |
| 2026-04-21 18:56 | -3.02528 | 38.85835 | 30012 ft | 485 kts | 129° |
| 2026-04-21 18:56 | -3.04737 | 38.88373 | 28970 ft | 483 kts | 129° |
| 2026-04-21 18:56 | -3.06199 | 38.90054 | 28223 ft | 483 kts | 129° |
| 2026-04-21 18:56 | -3.09150 | 38.93446 | 26689 ft | 483 kts | 129° |
| 2026-04-21 18:57 | -3.10608 | 38.95122 | 25904 ft | 483 kts | 130° |
| 2026-04-21 18:57 | -3.12810 | 38.97654 | 24916 ft | 480 kts | 130° |
| 2026-04-21 18:57 | -3.14991 | 39.00160 | 24102 ft | 473 kts | 130° |
| 2026-04-21 18:57 | -3.17829 | 39.03423 | 22847 ft | 465 kts | 130° |
| 2026-04-21 18:58 | -3.19251 | 39.05060 | 22304 ft | 457 kts | 130° |
| 2026-04-21 18:58 | -3.21340 | 39.07462 | 21284 ft | 454 kts | 130° |
| 2026-04-21 18:58 | -3.23366 | 39.09792 | 20385 ft | 448 kts | 130° |
| 2026-04-21 18:58 | -3.25433 | 39.12105 | 19628 ft | 440 kts | 132° |
| 2026-04-21 18:59 | -3.27584 | 39.14266 | 18727 ft | 437 kts | 135° |
| 2026-04-21 18:59 | -3.29775 | 39.16338 | 17805 ft | 432 kts | 136° |
| 2026-04-21 18:59 | -3.31962 | 39.18370 | 16999 ft | 423 kts | 136° |
| 2026-04-21 18:59 | -3.34113 | 39.20375 | 16092 ft | 420 kts | 136° |
| 2026-04-21 19:00 | -3.36228 | 39.22362 | 15377 ft | 412 kts | 135° |
| 2026-04-21 19:00 | -3.38262 | 39.24290 | 15201 ft | 393 kts | 135° |
| 2026-04-21 19:00 | -3.40192 | 39.26128 | 15049 ft | 372 kts | 135° |
| 2026-04-21 19:00 | -3.42022 | 39.27878 | 14537 ft | 356 kts | 135° |
| 2026-04-21 19:01 | -3.43788 | 39.29570 | 13912 ft | 347 kts | 135° |
| 2026-04-21 19:01 | -3.45521 | 39.31233 | 13001 ft | 345 kts | 135° |
| 2026-04-21 19:01 | -3.47233 | 39.32876 | 11946 ft | 347 kts | 135° |
| 2026-04-21 19:01 | -3.48977 | 39.34552 | 10909 ft | 348 kts | 135° |
| 2026-04-21 19:02 | -3.50695 | 39.36200 | 10596 ft | 327 kts | 135° |
| 2026-04-21 19:02 | -3.52284 | 39.37723 | 10416 ft | 306 kts | 135° |
| 2026-04-21 19:02 | -3.53779 | 39.39156 | 10302 ft | 291 kts | 136° |
| 2026-04-21 19:02 | -3.55224 | 39.40542 | 10183 ft | 283 kts | 136° |
| 2026-04-21 19:03 | -3.56649 | 39.41909 | 10092 ft | 286 kts | 136° |
| 2026-04-21 19:03 | -3.58077 | 39.43279 | 9964 ft | 280 kts | 136° |
| 2026-04-21 19:03 | -3.59475 | 39.44620 | 9608 ft | 277 kts | 136° |
| 2026-04-21 19:03 | -3.60861 | 39.45950 | 9260 ft | 275 kts | 136° |
| 2026-04-21 19:04 | -3.62236 | 39.47269 | 8902 ft | 272 kts | 136° |
| 2026-04-21 19:04 | -3.63582 | 39.48560 | 8566 ft | 270 kts | 136° |
| 2026-04-21 19:04 | -3.64937 | 39.49860 | 8216 ft | 269 kts | 136° |
| 2026-04-21 19:04 | -3.66264 | 39.51134 | 7876 ft | 267 kts | 136° |
| 2026-04-21 19:05 | -3.67602 | 39.52418 | 7526 ft | 266 kts | 137° |
| 2026-04-21 19:05 | -3.68931 | 39.53693 | 7190 ft | 264 kts | 137° |
| 2026-04-21 19:05 | -3.70257 | 39.54964 | 6858 ft | 263 kts | 137° |
| 2026-04-21 19:05 | -3.71576 | 39.56231 | 6520 ft | 263 kts | 137° |
| 2026-04-21 19:06 | -3.72895 | 39.57497 | 6154 ft | 262 kts | 137° |
| 2026-04-21 19:06 | -3.74207 | 39.58757 | 5814 ft | 261 kts | 137° |
| 2026-04-21 19:06 | -3.75515 | 39.60011 | 5486 ft | 259 kts | 137° |
| 2026-04-21 19:06 | -3.76813 | 39.61257 | 5158 ft | 257 kts | 137° |
| 2026-04-21 19:07 | -3.78044 | 39.62521 | 4833 ft | 257 kts | 128° |
| 2026-04-21 19:07 | -3.78971 | 39.64023 | 4666 ft | 250 kts | 121° |
| 2026-04-21 19:07 | -3.79789 | 39.65527 | 4533 ft | 241 kts | 120° |
| 2026-04-21 19:07 | -3.80580 | 39.66974 | 4425 ft | 232 kts | 121° |
| 2026-04-21 19:08 | -3.81345 | 39.68356 | 4346 ft | 223 kts | 121° |
| 2026-04-21 19:08 | -3.82315 | 39.69481 | 4266 ft | 209 kts | 150° |
| 2026-04-21 19:08 | -3.83674 | 39.69896 | 4085 ft | 204 kts | 176° |
| 2026-04-21 19:08 | -3.85076 | 39.69693 | 3838 ft | 205 kts | 199° |
| 2026-04-21 19:09 | -3.86341 | 39.69066 | 3661 ft | 202 kts | 206° |
| 2026-04-21 19:09 | -3.87548 | 39.68380 | 3389 ft | 193 kts | 206° |
| 2026-04-21 19:09 | -3.88676 | 39.67736 | 3137 ft | 180 kts | 206° |
| 2026-04-21 19:09 | -3.89728 | 39.67139 | 2921 ft | 167 kts | 206° |
| 2026-04-21 19:10 | -3.90722 | 39.66578 | 2697 ft | 161 kts | 206° |
| 2026-04-21 19:10 | -3.91676 | 39.66039 | 2449 ft | 154 kts | 205° |
| 2026-04-21 19:10 | -3.92604 | 39.65519 | 2276 ft | 150 kts | 206° |
| 2026-04-21 19:10 | -3.93494 | 39.65019 | 2095 ft | 140 kts | 206° |
| 2026-04-21 19:11 | -3.94294 | 39.64570 | 1921 ft | 128 kts | 207° |
| 2026-04-21 19:11 | -3.95036 | 39.64139 | 1671 ft | 123 kts | 207° |
| 2026-04-21 19:11 | -3.95804 | 39.63684 | 1396 ft | 131 kts | 207° |
| 2026-04-21 19:11 | -3.96571 | 39.63249 | 1222 ft | 124 kts | 206° |
| 2026-04-21 19:12 | -3.97356 | 39.62825 | 1025 ft | 131 kts | 207° |
| 2026-04-21 19:12 | -3.98144 | 39.62369 | 927 ft | 141 kts | 208° |
| 2026-04-21 19:12 | -3.99013 | 39.61930 | 929 ft | 130 kts | 202° |
| 2026-04-21 19:12 | -3.99776 | 39.61622 | 820 ft | 117 kts | 211° |
| 2026-04-21 19:13 | -4.00511 | 39.61107 | 408 ft | 138 kts | 216° |
| 2026-04-21 19:13 | -4.01332 | 39.60622 | 242 ft | 137 kts | 208° |
| 2026-04-21 19:13 | -4.02111 | 39.60193 | 206 ft | 106 kts | 210° |
| 2026-04-21 19:13 | -4.02566 | 39.59936 | 208 ft | 44 kts | 209° |
| 2026-04-21 19:14 | -4.02674 | 39.59909 | 205 ft | 6 kts | 153° |
| 2026-04-21 19:14 | -4.02745 | 39.59949 | 209 ft | 19 kts | 148° |
| 2026-04-21 19:14 | -4.02859 | 39.60066 | 205 ft | 27 kts | 122° |
| 2026-04-21 19:14 | -4.02948 | 39.60214 | 202 ft | 18 kts | 134° |
| 2026-04-21 19:15 | -4.02996 | 39.60268 | 202 ft | 6 kts | 116° |
| 2026-04-21 19:15 | -4.03017 | 39.60306 | 206 ft | 6 kts | 118° |
| 2026-04-21 19:15 | -4.03024 | 39.60321 | 211 ft | 0 kts | 117° |